createdAt,value
2022-12-29T00:00:20.301Z,2.95
2022-12-29T00:02:47.230Z,3.01
2022-12-29T00:05:14.102Z,2.86
2022-12-29T00:07:41.027Z,2.82
2022-12-29T00:10:07.867Z,2.71
2022-12-29T00:12:53.256Z,2.79
2022-12-29T00:15:38.206Z,2.62
2022-12-29T00:18:05.029Z,2.47
2022-12-29T00:20:59.844Z,2.42
2022-12-29T00:23:44.966Z,2.36
2022-12-29T00:26:36.722Z,2.43
2022-12-29T00:29:38.445Z,2.25
2022-12-29T00:32:24.002Z,2.22
2022-12-29T00:35:09.018Z,2.27
2022-12-29T00:38:03.204Z,2.20
2022-12-29T00:40:48.240Z,2.19
2022-12-29T00:43:33.508Z,2.18
2022-12-29T00:46:00.113Z,1.91
2022-12-29T00:48:45.383Z,1.98
2022-12-29T00:51:12.078Z,1.94
2022-12-29T00:53:38.648Z,1.86
2022-12-29T00:56:05.187Z,1.77
2022-12-29T00:58:31.828Z,1.75
2022-12-29T01:01:02.436Z,1.78
2022-12-29T01:03:29.077Z,1.68
2022-12-29T01:05:55.622Z,1.66
2022-12-29T01:08:22.146Z,1.64
2022-12-29T01:10:58.950Z,1.55
2022-12-29T01:13:25.684Z,1.88
2022-12-29T01:15:53.343Z,1.59
2022-12-29T01:18:20.626Z,1.62
2022-12-29T01:20:47.171Z,1.61
2022-12-29T01:23:14.070Z,1.87
2022-12-29T01:25:40.916Z,1.80
2022-12-29T01:28:09.196Z,1.61
2022-12-29T01:30:36.324Z,1.53
2022-12-29T01:33:02.992Z,1.49
2022-12-29T01:35:29.797Z,1.65
2022-12-29T01:37:56.340Z,1.56
2022-12-29T01:40:23.080Z,1.45
2022-12-29T01:42:49.622Z,1.47
2022-12-29T01:45:17.712Z,1.47
2022-12-29T01:47:51.620Z,1.45
2022-12-29T01:50:18.591Z,1.30
2022-12-29T01:52:52.338Z,1.33
2022-12-29T01:55:19.410Z,1.21
2022-12-29T01:57:49.921Z,1.23
2022-12-29T02:00:16.961Z,1.32
2022-12-29T02:03:03.373Z,1.20
2022-12-29T02:05:36.862Z,1.35
2022-12-29T02:08:04.142Z,1.53
2022-12-29T02:10:33.837Z,1.36
2022-12-29T02:13:00.583Z,1.54
2022-12-29T02:15:45.722Z,1.68
2022-12-29T02:18:12.267Z,1.65
2022-12-29T02:20:58.771Z,1.54
2022-12-29T02:23:25.254Z,1.50
2022-12-29T02:26:24.742Z,1.54
2022-12-29T02:29:06.595Z,2.00
2022-12-29T02:31:36.134Z,1.69
2022-12-29T02:34:08.812Z,1.94
2022-12-29T02:36:38.593Z,1.67
2022-12-29T02:39:05.168Z,2.10
2022-12-29T02:41:44.357Z,1.95
2022-12-29T02:44:30.101Z,1.82
2022-12-29T02:47:11.970Z,1.91
2022-12-29T02:49:51.066Z,1.79
2022-12-29T02:52:21.898Z,1.98
2022-12-29T02:54:49.410Z,1.66
2022-12-29T02:57:16.227Z,1.97
2022-12-29T02:59:46.438Z,1.83
2022-12-29T03:02:41.083Z,1.64
2022-12-29T03:05:31.528Z,1.80
2022-12-29T03:07:58.066Z,1.89
2022-12-29T03:10:36.677Z,2.05
2022-12-29T03:13:41.088Z,1.74
2022-12-29T03:16:14.501Z,1.71
2022-12-29T03:18:49.819Z,1.55
2022-12-29T03:21:48.619Z,1.57
2022-12-29T03:24:17.105Z,2.10
2022-12-29T03:26:47.428Z,1.79
2022-12-29T03:29:17.425Z,2.29
2022-12-29T03:31:45.828Z,2.38
2022-12-29T03:34:14.899Z,2.61
2022-12-29T03:36:49.367Z,3.12
2022-12-29T03:39:15.858Z,3.11
2022-12-29T03:41:45.575Z,3.48
2022-12-29T03:44:13.992Z,3.31
2022-12-29T03:46:40.982Z,3.64
2022-12-29T03:49:07.582Z,3.84
2022-12-29T03:51:34.090Z,4.07
2022-12-29T03:54:01.003Z,3.90
2022-12-29T03:56:27.544Z,4.97
2022-12-29T03:58:54.174Z,4.77
2022-12-29T04:01:20.727Z,4.27
2022-12-29T04:03:47.344Z,4.29
2022-12-29T04:06:14.039Z,3.90
2022-12-29T04:08:40.861Z,3.87
2022-12-29T04:11:07.431Z,3.99
2022-12-29T04:13:34.099Z,3.66
2022-12-29T04:16:00.719Z,3.60
2022-12-29T04:18:27.239Z,3.44
2022-12-29T04:21:03.983Z,3.70
2022-12-29T04:23:32.093Z,3.56
2022-12-29T04:25:58.700Z,3.57
2022-12-29T04:28:25.456Z,3.66
2022-12-29T04:30:52.282Z,3.49
2022-12-29T04:33:19.607Z,3.58
2022-12-29T04:35:46.862Z,4.29
2022-12-29T04:38:14.199Z,4.05
2022-12-29T04:40:42.395Z,4.30
2022-12-29T04:43:09.004Z,4.02
2022-12-29T04:45:35.639Z,3.98
2022-12-29T04:48:02.321Z,4.86
2022-12-29T04:50:29.018Z,4.54
2022-12-29T04:52:55.645Z,4.81
2022-12-29T04:55:22.437Z,5.17
2022-12-29T04:57:49.105Z,6.21
2022-12-29T05:00:15.979Z,5.60
2022-12-29T05:02:42.677Z,5.41
2022-12-29T05:05:10.094Z,5.43
2022-12-29T05:07:36.708Z,6.08
2022-12-29T05:10:04.368Z,5.25
2022-12-29T05:12:32.023Z,5.02
2022-12-29T05:14:58.665Z,4.97
2022-12-29T05:17:25.233Z,4.25
2022-12-29T05:19:51.963Z,4.86
2022-12-29T05:22:19.197Z,4.33
2022-12-29T05:24:45.852Z,4.35
2022-12-29T05:27:12.384Z,4.33
2022-12-29T05:29:39.240Z,4.38
2022-12-29T05:32:05.781Z,4.34
2022-12-29T05:34:32.436Z,3.97
2022-12-29T05:36:59.783Z,4.13
2022-12-29T05:39:26.405Z,3.73
2022-12-29T05:41:52.931Z,3.66
2022-12-29T05:44:19.506Z,4.06
2022-12-29T05:46:46.095Z,4.59
2022-12-29T05:49:12.836Z,4.44
2022-12-29T05:51:39.454Z,4.51
2022-12-29T05:54:05.975Z,4.15
2022-12-29T05:56:32.905Z,4.47
2022-12-29T05:59:00.129Z,4.58
2022-12-29T06:01:26.793Z,4.77
2022-12-29T06:03:53.608Z,4.69
2022-12-29T06:06:20.413Z,5.26
2022-12-29T06:08:46.948Z,5.42
2022-12-29T06:11:13.598Z,5.21
2022-12-29T06:13:40.218Z,5.49
2022-12-29T06:16:07.073Z,5.43
2022-12-29T06:18:33.899Z,5.23
2022-12-29T06:21:01.989Z,5.42
2022-12-29T06:23:29.029Z,5.77
2022-12-29T06:25:55.909Z,5.21
2022-12-29T06:28:22.999Z,5.43
2022-12-29T06:30:49.739Z,5.22
2022-12-29T06:33:16.843Z,5.29
2022-12-29T06:35:44.254Z,5.22
2022-12-29T06:38:10.955Z,5.37
2022-12-29T06:40:37.529Z,5.33
2022-12-29T06:43:04.167Z,5.73
2022-12-29T06:45:30.754Z,5.98
2022-12-29T06:47:57.341Z,5.79
2022-12-29T06:50:23.869Z,6.18
2022-12-29T06:52:50.346Z,6.24
2022-12-29T06:55:17.440Z,6.38
2022-12-29T06:57:44.028Z,6.30
2022-12-29T07:00:10.835Z,6.62
2022-12-29T07:02:37.538Z,7.35
2022-12-29T07:05:04.505Z,7.16
2022-12-29T07:07:31.052Z,7.20
2022-12-29T07:09:57.580Z,7.12
2022-12-29T07:12:24.215Z,7.67
2022-12-29T07:14:50.775Z,7.82
2022-12-29T07:17:17.333Z,7.86
2022-12-29T07:19:43.951Z,7.21
2022-12-29T07:22:10.973Z,7.94
2022-12-29T07:24:37.572Z,7.99
2022-12-29T07:27:04.440Z,8.20
2022-12-29T07:29:30.982Z,8.21
2022-12-29T07:31:57.760Z,7.95
2022-12-29T07:34:24.496Z,7.92
2022-12-29T07:36:51.074Z,9.43
2022-12-29T07:39:17.648Z,9.87
2022-12-29T07:41:44.420Z,7.84
2022-12-29T07:44:11.836Z,20.64
2022-12-29T07:46:55.317Z,5.82
2022-12-29T07:49:23.355Z,8.83
2022-12-29T07:51:49.856Z,5.04
2022-12-29T07:54:19.267Z,5.97
2022-12-29T07:56:46.452Z,6.57
2022-12-29T07:59:15.918Z,6.62
2022-12-29T08:01:42.505Z,6.93
2022-12-29T08:04:09.288Z,7.08
2022-12-29T08:06:35.864Z,6.32
2022-12-29T08:09:11.326Z,6.21
2022-12-29T08:11:41.589Z,6.43
2022-12-29T08:14:08.434Z,6.60
2022-12-29T08:16:35.078Z,6.57
2022-12-29T08:19:01.910Z,6.90
2022-12-29T08:21:28.973Z,6.42
2022-12-29T08:23:55.547Z,6.70
2022-12-29T08:26:22.135Z,6.67
2022-12-29T08:28:48.721Z,6.97
2022-12-29T08:31:15.294Z,6.50
2022-12-29T08:33:41.937Z,7.36
2022-12-29T08:36:08.789Z,6.46
2022-12-29T08:38:35.399Z,6.69
2022-12-29T08:41:02.484Z,6.57
2022-12-29T08:43:29.312Z,6.68
2022-12-29T08:45:55.906Z,6.96
2022-12-29T08:48:23.243Z,6.87
2022-12-29T08:50:50.755Z,6.44
2022-12-29T08:53:18.952Z,6.98
2022-12-29T08:55:47.136Z,6.41
2022-12-29T08:58:15.636Z,6.24
2022-12-29T09:00:43.347Z,6.87
2022-12-29T09:03:10.417Z,6.67
2022-12-29T09:05:37.889Z,6.19
2022-12-29T09:08:05.345Z,6.49
2022-12-29T09:10:32.435Z,6.28
2022-12-29T09:12:59.026Z,5.87
2022-12-29T09:15:25.622Z,6.00
2022-12-29T09:17:52.176Z,5.66
2022-12-29T09:20:20.333Z,5.65
2022-12-29T09:22:47.687Z,5.69
2022-12-29T09:25:14.757Z,5.27
2022-12-29T09:27:41.311Z,5.09
2022-12-29T09:30:09.895Z,5.34
2022-12-29T09:32:42.016Z,4.84
2022-12-29T09:35:11.427Z,5.16
2022-12-29T09:37:37.954Z,5.11
2022-12-29T09:40:05.267Z,4.89
2022-12-29T09:42:37.892Z,5.37
2022-12-29T09:45:04.420Z,6.22
2022-12-29T09:47:31.505Z,5.81
2022-12-29T09:49:58.042Z,6.14
2022-12-29T09:52:31.535Z,6.25
2022-12-29T09:55:03.205Z,6.19
2022-12-29T09:57:40.080Z,6.18
2022-12-29T10:00:15.557Z,6.57
2022-12-29T10:02:45.499Z,7.36
2022-12-29T10:05:21.088Z,7.03
2022-12-29T10:08:00.994Z,7.57
2022-12-29T10:10:34.652Z,7.68
2022-12-29T10:13:07.694Z,7.93
2022-12-29T10:15:34.312Z,8.49
2022-12-29T10:18:23.922Z,8.73
2022-12-29T10:20:56.075Z,8.58
2022-12-29T10:23:35.044Z,8.85
2022-12-29T10:26:04.076Z,9.57
2022-12-29T10:28:43.917Z,9.44
2022-12-29T10:31:18.040Z,9.95
2022-12-29T10:33:44.689Z,10.44
2022-12-29T10:36:20.141Z,9.42
2022-12-29T10:39:06.947Z,9.88
2022-12-29T10:41:45.663Z,9.42
2022-12-29T10:44:16.467Z,10.25
2022-12-29T10:46:45.136Z,10.36
2022-12-29T10:49:21.929Z,10.35
2022-12-29T10:51:52.941Z,10.13
2022-12-29T10:54:24.042Z,9.62
2022-12-29T10:56:54.859Z,8.88
2022-12-29T10:59:31.995Z,8.40
2022-12-29T11:02:08.142Z,8.85
2022-12-29T11:04:37.863Z,8.28
2022-12-29T11:07:04.665Z,8.26
2022-12-29T11:09:42.714Z,8.34
2022-12-29T11:12:42.276Z,8.39
2022-12-29T11:15:08.813Z,8.10
2022-12-29T11:17:46.208Z,7.89
2022-12-29T11:20:33.066Z,7.45
2022-12-29T11:23:00.688Z,7.53
2022-12-29T11:25:27.947Z,7.91
2022-12-29T11:27:59.589Z,7.63
2022-12-29T11:30:28.142Z,6.86
2022-12-29T11:32:55.812Z,6.74
2022-12-29T11:35:33.624Z,7.35
2022-12-29T11:38:02.458Z,7.43
2022-12-29T11:40:29.606Z,6.74
2022-12-29T11:42:58.455Z,6.00
2022-12-29T11:45:33.469Z,5.79
2022-12-29T11:48:06.922Z,4.93
2022-12-29T11:50:36.482Z,4.97
2022-12-29T11:53:07.321Z,5.47
2022-12-29T11:55:34.575Z,5.17
2022-12-29T11:58:03.963Z,6.22
2022-12-29T12:00:34.601Z,6.23
2022-12-29T12:03:19.012Z,6.68
2022-12-29T12:05:53.473Z,5.86
2022-12-29T12:08:29.020Z,6.07
2022-12-29T12:11:19.422Z,5.70
2022-12-29T12:13:59.800Z,5.41
2022-12-29T12:16:33.206Z,4.75
2022-12-29T12:19:05.352Z,4.87
2022-12-29T12:21:43.458Z,4.50
2022-12-29T12:24:14.407Z,4.65
2022-12-29T12:26:50.914Z,4.32
2022-12-29T12:29:23.889Z,4.26
2022-12-29T12:32:01.037Z,4.67
2022-12-29T12:34:37.881Z,4.78
2022-12-29T12:37:07.589Z,4.49
2022-12-29T12:39:53.125Z,4.47
2022-12-29T12:42:22.516Z,4.32
2022-12-29T12:45:00.812Z,3.77
2022-12-29T12:47:46.442Z,4.15
2022-12-29T12:50:28.114Z,3.97
2022-12-29T12:53:06.784Z,4.21
2022-12-29T12:55:39.565Z,3.62
2022-12-29T12:58:21.585Z,3.48
2022-12-29T13:00:59.680Z,3.61
2022-12-29T13:03:41.659Z,3.93
2022-12-29T13:06:30.925Z,3.95
2022-12-29T13:09:09.657Z,5.24
2022-12-29T13:11:48.461Z,5.94
2022-12-29T13:14:26.255Z,4.15
2022-12-29T13:17:11.656Z,4.97
2022-12-29T13:19:41.215Z,4.82
2022-12-29T13:22:13.139Z,4.53
2022-12-29T13:24:39.646Z,4.44
2022-12-29T13:27:18.385Z,6.09
2022-12-29T13:29:44.928Z,4.54
2022-12-29T13:32:24.055Z,3.87
2022-12-29T13:34:53.504Z,4.82
2022-12-29T13:37:23.679Z,3.85
2022-12-29T13:39:54.098Z,4.87
2022-12-29T13:42:20.923Z,5.13
2022-12-29T13:44:50.012Z,4.75
2022-12-29T13:47:27.096Z,4.75
2022-12-29T13:49:57.011Z,4.20
2022-12-29T13:52:59.119Z,4.52
2022-12-29T13:55:28.603Z,4.50
2022-12-29T13:57:55.330Z,4.43
2022-12-29T14:00:23.095Z,4.39
2022-12-29T14:03:10.133Z,4.17
2022-12-29T14:05:36.833Z,4.35
2022-12-29T14:08:05.547Z,4.63
2022-12-29T14:10:50.208Z,4.86
2022-12-29T14:13:27.468Z,5.13
2022-12-29T14:15:56.204Z,5.16
2022-12-29T14:18:27.632Z,5.83
2022-12-29T14:21:20.311Z,6.15
2022-12-29T14:23:48.449Z,6.41
2022-12-29T14:26:38.460Z,6.05
2022-12-29T14:29:37.256Z,6.67
2022-12-29T14:32:23.802Z,6.31
2022-12-29T14:34:52.757Z,6.31
2022-12-29T14:37:28.075Z,5.72
2022-12-29T14:40:13.885Z,5.40
2022-12-29T14:42:42.428Z,5.54
2022-12-29T14:45:26.929Z,4.80
2022-12-29T14:47:54.758Z,4.37
2022-12-29T14:50:44.624Z,4.49
2022-12-29T14:53:30.045Z,4.40
2022-12-29T14:55:58.487Z,4.78
2022-12-29T14:58:28.065Z,4.72
2022-12-29T15:00:55.489Z,4.71
2022-12-29T15:03:30.034Z,4.40
2022-12-29T15:05:58.892Z,4.45
2022-12-29T15:08:29.066Z,4.23
2022-12-29T15:10:59.270Z,4.28
2022-12-29T15:13:34.237Z,4.68
2022-12-29T15:16:00.807Z,5.04
2022-12-29T15:18:29.496Z,4.90
2022-12-29T15:20:58.346Z,5.37
2022-12-29T15:23:25.886Z,5.55
2022-12-29T15:25:57.260Z,5.81
2022-12-29T15:28:24.744Z,5.49
2022-12-29T15:30:52.337Z,5.30
2022-12-29T15:33:19.786Z,5.36
2022-12-29T15:35:50.456Z,6.15
2022-12-29T15:38:30.369Z,6.18
2022-12-29T15:41:07.056Z,5.94
2022-12-29T15:43:53.620Z,6.15
2022-12-29T15:46:20.530Z,6.17
2022-12-29T15:48:47.238Z,6.23
2022-12-29T15:51:26.728Z,6.17
2022-12-29T15:53:53.361Z,6.45
2022-12-29T15:56:19.966Z,6.20
2022-12-29T15:58:51.845Z,6.57
2022-12-29T16:01:29.835Z,5.57
2022-12-29T16:03:58.435Z,4.95
2022-12-29T16:06:35.798Z,5.75
2022-12-29T16:09:16.514Z,5.51
2022-12-29T16:11:55.517Z,5.74
2022-12-29T16:14:34.505Z,6.57
2022-12-29T16:17:05.061Z,5.79
2022-12-29T16:19:37.869Z,5.66
2022-12-29T16:22:11.275Z,5.62
2022-12-29T16:24:40.503Z,5.11
2022-12-29T16:27:09.825Z,6.53
2022-12-29T16:29:36.651Z,6.37
2022-12-29T16:32:20.003Z,16.72
2022-12-29T16:34:46.634Z,45.98
2022-12-29T16:37:30.367Z,32.96
2022-12-29T16:39:57.064Z,26.23
2022-12-29T16:42:47.151Z,13.34
2022-12-29T16:45:17.217Z,11.32
2022-12-29T16:47:44.094Z,7.61
2022-12-29T16:50:28.318Z,6.43
2022-12-29T16:52:55.264Z,8.63
2022-12-29T16:55:21.902Z,6.35
2022-12-29T16:57:50.651Z,7.40
2022-12-29T17:00:21.902Z,6.29
2022-12-29T17:02:50.467Z,6.43
2022-12-29T17:05:18.560Z,6.64
2022-12-29T17:07:45.644Z,7.14
2022-12-29T17:10:13.449Z,7.28
2022-12-29T17:12:42.478Z,7.05
2022-12-29T17:15:16.541Z,8.10
2022-12-29T17:17:45.276Z,6.20
2022-12-29T17:20:19.570Z,8.84
2022-12-29T17:22:46.311Z,7.11
2022-12-29T17:25:14.335Z,12.72
2022-12-29T17:27:47.678Z,6.28
2022-12-29T17:30:14.229Z,8.25
2022-12-29T17:32:41.978Z,7.52
2022-12-29T17:35:15.679Z,7.15
2022-12-29T17:37:42.207Z,16.18
2022-12-29T17:40:13.743Z,13.74
2022-12-29T17:42:43.757Z,13.63
2022-12-29T17:45:36.836Z,13.90
2022-12-29T17:48:11.105Z,6.99
2022-12-29T17:50:37.619Z,5.19
2022-12-29T17:53:06.061Z,5.13
2022-12-29T17:55:37.951Z,6.89
2022-12-29T17:58:19.011Z,6.61
2022-12-29T18:00:46.152Z,6.36
2022-12-29T18:03:21.561Z,9.24
2022-12-29T18:05:49.796Z,6.83
2022-12-29T18:08:16.348Z,8.06
2022-12-29T18:10:43.259Z,6.76
2022-12-29T18:13:20.335Z,5.69
2022-12-29T18:15:47.350Z,5.39
2022-12-29T18:18:13.927Z,4.60
2022-12-29T18:20:41.583Z,5.21
2022-12-29T18:23:18.442Z,5.96
2022-12-29T18:26:00.444Z,5.96
2022-12-29T18:28:27.742Z,5.37
2022-12-29T18:30:56.256Z,5.54
2022-12-29T18:33:26.243Z,6.31
2022-12-29T18:35:56.726Z,5.72
2022-12-29T18:38:23.346Z,6.20
2022-12-29T18:40:49.928Z,6.48
2022-12-29T18:43:18.098Z,7.07
2022-12-29T18:45:48.654Z,6.00
2022-12-29T18:48:16.302Z,7.07
2022-12-29T18:50:42.906Z,7.73
2022-12-29T18:53:20.027Z,6.60
2022-12-29T18:55:46.735Z,6.88
2022-12-29T18:58:13.265Z,7.60
2022-12-29T19:00:40.653Z,7.30
2022-12-29T19:03:07.567Z,6.89
2022-12-29T19:05:38.842Z,7.36
2022-12-29T19:08:06.372Z,7.39
2022-12-29T19:10:33.640Z,7.28
2022-12-29T19:13:00.573Z,7.99
2022-12-29T19:15:28.720Z,7.65
2022-12-29T19:18:41.280Z,7.78
2022-12-29T19:20:43.212Z,7.79
2022-12-29T19:23:12.004Z,8.05
2022-12-29T19:25:39.042Z,6.99
2022-12-29T19:28:06.709Z,7.31
2022-12-29T19:30:34.857Z,7.11
2022-12-29T19:33:09.649Z,7.42
2022-12-29T19:35:36.682Z,8.09
2022-12-29T19:38:03.955Z,10.33
2022-12-29T19:40:30.689Z,6.82
2022-12-29T19:42:57.480Z,8.69
2022-12-29T19:45:24.107Z,8.21
2022-12-29T19:47:50.654Z,6.66
2022-12-29T19:50:17.720Z,6.88
2022-12-29T19:52:44.948Z,6.93
2022-12-29T19:55:15.772Z,6.88
2022-12-29T19:57:42.822Z,7.41
2022-12-29T20:00:10.180Z,7.21
2022-12-29T20:02:37.754Z,7.19
2022-12-29T20:05:04.606Z,7.16
2022-12-29T20:07:31.210Z,7.41
2022-12-29T20:09:57.749Z,7.80
2022-12-29T20:12:29.084Z,7.55
2022-12-29T20:14:56.681Z,7.09
2022-12-29T20:17:53.841Z,8.00
2022-12-29T20:20:10.965Z,7.85
2022-12-29T20:22:37.969Z,7.52
2022-12-29T20:25:42.937Z,7.65
2022-12-29T20:27:51.383Z,7.58
2022-12-29T20:30:17.994Z,8.53
2022-12-29T20:32:44.793Z,8.86
2022-12-29T20:35:12.660Z,8.89
2022-12-29T20:37:39.332Z,9.05
2022-12-29T20:40:06.027Z,9.09
2022-12-29T20:42:32.571Z,8.72
2022-12-29T20:45:00.432Z,8.99
2022-12-29T20:47:27.335Z,8.17
2022-12-29T20:49:54.011Z,7.83
2022-12-29T20:52:20.578Z,8.20
2022-12-29T20:54:47.183Z,8.28
2022-12-29T20:57:13.864Z,8.11
2022-12-29T20:59:40.456Z,7.62
2022-12-29T21:02:07.170Z,7.97
2022-12-29T21:04:57.347Z,8.92
2022-12-29T21:07:21.138Z,7.81
2022-12-29T21:09:47.692Z,8.23
2022-12-29T21:12:14.944Z,8.44
2022-12-29T21:14:45.632Z,7.88
2022-12-29T21:17:12.688Z,8.32
2022-12-29T21:19:39.355Z,8.57
2022-12-29T21:22:05.950Z,7.93
2022-12-29T21:24:32.832Z,8.12
2022-12-29T21:26:59.421Z,8.49
2022-12-29T21:29:26.768Z,8.61
2022-12-29T21:31:53.317Z,14.62
2022-12-29T21:34:19.812Z,20.53
2022-12-29T21:36:46.369Z,22.35
2022-12-29T21:39:12.921Z,6.49
2022-12-29T21:41:39.724Z,17.66
2022-12-29T21:44:25.015Z,10.72
2022-12-29T21:46:51.770Z,6.23
2022-12-29T21:49:18.370Z,7.39
2022-12-29T21:51:50.932Z,7.60
2022-12-29T21:54:37.085Z,8.08
2022-12-29T21:57:04.432Z,7.71
2022-12-29T21:59:49.671Z,7.79
2022-12-29T22:02:36.925Z,7.20
2022-12-29T22:05:23.078Z,7.80
2022-12-29T22:08:07.974Z,7.64
2022-12-29T22:10:57.413Z,8.40
2022-12-29T22:13:24.044Z,7.34
2022-12-29T22:15:50.654Z,8.27
2022-12-29T22:18:17.234Z,7.54
2022-12-29T22:20:43.758Z,7.65
2022-12-29T22:23:10.284Z,7.65
2022-12-29T22:25:38.571Z,7.58
2022-12-29T22:28:05.303Z,8.30
2022-12-29T22:30:32.662Z,8.06
2022-12-29T22:32:59.406Z,8.52
2022-12-29T22:35:26.060Z,8.86
2022-12-29T22:37:53.271Z,7.97
2022-12-29T22:40:20.534Z,7.53
2022-12-29T22:42:47.084Z,7.60
2022-12-29T22:45:13.818Z,7.78
2022-12-29T22:47:40.455Z,7.80
2022-12-29T22:50:07.230Z,7.79
2022-12-29T22:52:33.880Z,7.62
2022-12-29T22:55:06.325Z,7.78
2022-12-29T22:57:33.680Z,7.30
2022-12-29T23:00:00.284Z,7.64
2022-12-29T23:02:27.239Z,7.26
2022-12-29T23:05:09.175Z,7.28
2022-12-29T23:07:36.020Z,7.50
2022-12-29T23:10:04.134Z,7.52
2022-12-29T23:12:31.310Z,7.77
2022-12-29T23:14:57.936Z,6.77
2022-12-29T23:17:25.489Z,6.69
2022-12-29T23:19:52.172Z,6.20
2022-12-29T23:22:18.877Z,6.47
2022-12-29T23:24:45.448Z,6.40
2022-12-29T23:27:12.038Z,6.65
2022-12-29T23:29:38.601Z,7.27
2022-12-29T23:32:05.306Z,7.18
2022-12-29T23:34:31.876Z,6.94
2022-12-29T23:36:58.514Z,6.72
2022-12-29T23:39:25.173Z,7.07
2022-12-29T23:41:52.476Z,7.12
2022-12-29T23:44:19.001Z,7.16
2022-12-29T23:46:45.670Z,6.57
2022-12-29T23:49:12.323Z,7.01
2022-12-29T23:51:38.910Z,7.19
2022-12-29T23:54:05.450Z,7.22
2022-12-29T23:56:32.108Z,8.21
2022-12-29T23:58:58.718Z,7.75
